Terminal Aerodrome Forecast
Issued by NWS Missoula, MT

Home | Current Version | Previous Version | Text Only | Print | Product List | Glossary On
Versions: 1 2 3 4 5 6 7 8 9 10 11 12 13 14 15 16 17 18 19 20 21 22
276
FTUS45 KMSO 191908 AAA
TAFMSO
TAF AMD
KMSO 191908Z 1919/2018 25004KT 5SM BR SCT004 OVC030
     FM192000 30005KT 6SM BR VCSH OVC050
     FM192100 28007KT P6SM VCSH OVC050=

USA.gov is the U.S. government's official web portal to all federal, state and local government web resources and services.